Time;durP1;ratioP1;P1;durP2;ratioP2;P2;SDS_P1;SDS_P2;PMS_P1;PMS_P2;Temp;Humidity;BMP_temperature;BMP_pressure;BME280_temperature;BME280_humidity;BME280_pressure;Samples;Min_cycle;Max_cycle;Signal;HPM_P1;HPM_P2
2023/12/05 00:00:33;;;;;;;11.85;7.55;;;;;;;-0.20;100.00;100443.28;4931655;28;20055;-78
2023/12/05 00:03:01;;;;;;;10.48;7.50;;;;;;;-0.19;100.00;100437.25;4940239;29;20059;-77
2023/12/05 00:05:29;;;;;;;12.73;7.82;;;;;;;-0.21;100.00;100441.47;4949053;28;20066;-78
2023/12/05 00:07:56;;;;;;;13.30;7.82;;;;;;;-0.24;100.00;100425.84;4926573;29;20066;-78
2023/12/05 00:10:24;;;;;;;10.48;7.30;;;;;;;-0.28;100.00;100434.31;4955994;28;20051;-77
2023/12/05 00:12:52;;;;;;;13.80;8.43;;;;;;;-0.30;100.00;100441.13;4958718;29;20058;-78
2023/12/05 00:15:19;;;;;;;14.07;8.15;;;;;;;-0.32;100.00;100427.22;4919128;28;20058;-78
2023/12/05 00:17:47;;;;;;;13.65;8.82;;;;;;;-0.33;100.00;100425.47;4940400;29;20055;-78
2023/12/05 00:20:14;;;;;;;12.88;8.55;;;;;;;-0.35;100.00;100425.41;4957634;29;20054;-78
2023/12/05 00:22:42;;;;;;;14.23;8.77;;;;;;;-0.37;100.00;100433.94;4934079;29;20050;-78
2023/12/05 00:25:10;;;;;;;15.77;9.05;;;;;;;-0.41;100.00;100426.03;4940690;29;20058;-78
2023/12/05 00:27:37;;;;;;;15.00;9.38;;;;;;;-0.41;100.00;100414.81;4955606;29;20043;-78
2023/12/05 00:30:05;;;;;;;17.42;9.75;;;;;;;-0.42;100.00;100420.78;4937436;28;20058;-78
2023/12/05 00:32:33;;;;;;;15.32;9.20;;;;;;;-0.43;100.00;100427.69;4957611;28;20520;-77
2023/12/05 00:35:00;;;;;;;16.00;9.40;;;;;;;-0.42;100.00;100426.88;4957774;29;20051;-78
2023/12/05 00:37:28;;;;;;;15.60;9.85;;;;;;;-0.44;100.00;100418.13;4932954;29;20054;-78
2023/12/05 00:39:55;;;;;;;14.85;9.85;;;;;;;-0.46;100.00;100418.91;4957267;28;20063;-78
2023/12/05 00:42:23;;;;;;;15.95;10.32;;;;;;;-0.51;100.00;100421.31;4956266;29;20047;-78
2023/12/05 00:44:51;;;;;;;16.08;10.80;;;;;;;-0.52;100.00;100408.31;4941753;29;20063;-78
2023/12/05 00:47:18;;;;;;;16.92;9.55;;;;;;;-0.54;100.00;100420.31;4901210;28;20058;-78
2023/12/05 00:49:45;;;;;;;16.10;9.73;;;;;;;-0.58;100.00;100421.88;4941863;29;20424;-77
2023/12/05 00:52:12;;;;;;;18.65;10.02;;;;;;;-0.59;100.00;100425.28;4930639;28;20055;-78
2023/12/05 00:54:40;;;;;;;17.45;10.65;;;;;;;-0.61;100.00;100421.75;4954249;29;20059;-78
2023/12/05 00:57:07;;;;;;;18.38;10.82;;;;;;;-0.62;100.00;100414.81;4937418;29;20047;-77
2023/12/05 00:59:35;;;;;;;17.55;10.40;;;;;;;-0.63;100.00;100420.81;4940720;29;20062;-77
2023/12/05 01:02:04;;;;;;;20.23;10.52;;;;;;;-0.65;100.00;100407.78;4912077;29;20044;-79
2023/12/05 01:04:32;;;;;;;18.05;10.23;;;;;;;-0.65;100.00;100412.97;4935235;29;20127;-78
2023/12/05 01:07:00;;;;;;;15.60;9.65;;;;;;;-0.65;100.00;100412.09;4939950;29;20051;-78
2023/12/05 01:09:28;;;;;;;14.90;9.43;;;;;;;-0.65;100.00;100412.09;4920613;29;20473;-78
2023/12/05 01:11:55;;;;;;;16.48;11.38;;;;;;;-0.66;100.00;100407.72;4924749;29;20519;-77
2023/12/05 01:14:22;;;;;;;16.95;8.90;;;;;;;-0.66;100.00;100420.66;4941784;29;20062;-78
2023/12/05 01:16:50;;;;;;;14.70;9.57;;;;;;;-0.65;100.00;100409.50;4908829;29;20044;-78
2023/12/05 01:19:18;;;;;;;16.58;9.60;;;;;;;-0.65;100.00;100425.03;4963291;28;20923;-77
2023/12/05 01:21:45;;;;;;;14.57;8.80;;;;;;;-0.68;100.00;100406.78;4955175;28;20039;-78
2023/12/05 01:24:13;;;;;;;15.73;10.68;;;;;;;-0.67;100.00;100417.19;4935379;28;20058;-78
2023/12/05 01:26:40;;;;;;;17.63;11.23;;;;;;;-0.67;100.00;100418.91;4961347;29;20524;-78
2023/12/05 01:29:08;;;;;;;18.52;11.27;;;;;;;-0.68;100.00;100402.50;4956178;29;20051;-78
2023/12/05 01:31:36;;;;;;;17.67;10.98;;;;;;;-0.68;100.00;100407.69;4960839;29;20051;-78
2023/12/05 01:34:03;;;;;;;17.65;9.82;;;;;;;-0.69;100.00;100405.91;4898414;28;20538;-78
2023/12/05 01:36:30;;;;;;;17.02;10.63;;;;;;;-0.70;100.00;100409.34;4960280;28;20863;-78
2023/12/05 01:38:58;;;;;;;15.77;10.25;;;;;;;-0.71;100.00;100404.09;4963675;28;20051;-77
2023/12/05 01:41:25;;;;;;;17.48;10.82;;;;;;;-0.71;100.00;100406.69;4950923;28;20059;-77
2023/12/05 01:43:53;;;;;;;15.95;10.20;;;;;;;-0.70;100.00;100406.75;4928479;29;20079;-78
2023/12/05 01:46:21;;;;;;;14.07;9.57;;;;;;;-0.70;100.00;100409.34;4959955;29;20472;-78
2023/12/05 01:48:49;;;;;;;16.60;9.73;;;;;;;-0.70;100.00;100398.97;4899266;29;20058;-77
2023/12/05 01:51:17;;;;;;;18.25;10.20;;;;;;;-0.69;100.00;100405.91;4953255;28;20062;-78
2023/12/05 01:53:45;;;;;;;18.58;10.27;;;;;;;-0.68;100.00;100402.50;4961417;29;20043;-78
2023/12/05 01:56:13;;;;;;;16.27;9.77;;;;;;;-0.68;100.00;100401.59;4953435;28;20055;-78
2023/12/05 01:58:41;;;;;;;17.60;10.57;;;;;;;-0.69;100.00;100400.72;4943980;29;20060;-78
2023/12/05 02:01:10;;;;;;;14.98;9.48;;;;;;;-0.69;100.00;100397.28;4960434;29;20062;-77
2023/12/05 02:03:38;;;;;;;16.80;9.80;;;;;;;-0.69;100.00;100397.28;4944692;28;20050;-77
2023/12/05 02:06:07;;;;;;;17.42;10.82;;;;;;;-0.70;100.00;100398.97;4955671;28;20047;-78
2023/12/05 02:08:36;;;;;;;19.98;10.18;;;;;;;-0.69;100.00;100405.03;4963539;29;20057;-79
2023/12/05 02:11:03;;;;;;;19.23;11.90;;;;;;;-0.68;100.00;100401.59;4940364;29;20047;-78
2023/12/05 02:13:31;;;;;;;15.13;10.32;;;;;;;-0.69;100.00;100398.16;4933632;28;20059;-77
2023/12/05 02:16:07;;;;;;;18.50;11.38;;;;;;;-0.67;100.00;100400.81;4957614;29;20048;-78
2023/12/05 02:18:43;;;;;;;17.58;10.82;;;;;;;-0.66;100.00;100398.28;4938096;28;20044;-77
2023/12/05 02:21:15;;;;;;;17.92;11.57;;;;;;;-0.65;100.00;100401.75;4955554;28;20050;-77
2023/12/05 02:24:21;;;;;;;17.83;10.80;;;;;;;-0.64;100.00;100393.19;4961980;28;20047;-76
2023/12/05 02:26:57;;;;;;;16.10;10.52;;;;;;;-0.67;100.00;100390.44;4950018;29;20059;-78
2023/12/05 02:29:25;;;;;;;17.25;10.93;;;;;;;-0.67;100.00;100403.38;4956992;28;20485;-78
2023/12/05 02:31:54;;;;;;;16.40;10.00;;;;;;;-0.68;100.00;100391.25;4974922;28;20056;-78
2023/12/05 02:34:22;;;;;;;16.23;9.88;;;;;;;-0.68;100.00;100388.66;4950753;28;20063;-78
2023/12/05 02:37:11;;;;;;;19.30;11.15;;;;;;;-0.66;100.00;100387.03;4937601;29;20047;-77
2023/12/05 02:39:57;;;;;;;16.85;10.45;;;;;;;-0.67;100.00;100388.75;4960608;29;20484;-77
2023/12/05 02:42:28;;;;;;;20.30;12.10;;;;;;;-0.66;100.00;100384.44;4931074;29;20063;-77
2023/12/05 02:45:00;;;;;;;18.73;11.07;;;;;;;-0.66;100.00;100379.25;4951700;28;20055;-78
2023/12/05 02:47:33;;;;;;;15.80;9.63;;;;;;;-0.65;100.00;100386.22;4962412;29;20408;-77
2023/12/05 02:50:01;;;;;;;19.17;10.98;;;;;;;-0.64;100.00;100380.25;4930612;28;20078;-77
2023/12/05 02:52:28;;;;;;;21.13;10.73;;;;;;;-0.66;100.00;100381.84;4953747;28;20039;-78
2023/12/05 02:54:56;;;;;;;19.75;11.38;;;;;;;-0.66;100.00;100381.84;4939733;29;20070;-78
2023/12/05 02:57:23;;;;;;;18.63;10.77;;;;;;;-0.66;100.00;100387.03;4944150;29;20048;-78
2023/12/05 02:59:50;;;;;;;19.45;10.52;;;;;;;-0.66;100.00;100384.44;4949375;28;20689;-78
2023/12/05 03:02:18;;;;;;;21.17;12.82;;;;;;;-0.68;100.00;100383.50;4928163;29;20051;-78
2023/12/05 03:04:45;;;;;;;19.85;12.15;;;;;;;-0.67;100.00;100382.69;4890517;29;20066;-78
2023/12/05 03:07:13;;;;;;;18.83;12.18;;;;;;;-0.68;100.00;100381.81;4958451;29;20048;-78
2023/12/05 03:09:40;;;;;;;19.25;11.77;;;;;;;-0.67;100.00;100377.50;4951675;28;20059;-78
2023/12/05 03:12:07;;;;;;;19.55;11.63;;;;;;;-0.68;100.00;100375.72;4934587;29;20047;-78
2023/12/05 03:14:35;;;;;;;20.13;12.05;;;;;;;-0.69;100.00;100381.75;4931908;29;20058;-77
2023/12/05 03:17:02;;;;;;;19.45;12.38;;;;;;;-0.71;100.00;100371.31;4943484;29;20074;-78
2023/12/05 03:19:30;;;;;;;21.23;12.23;;;;;;;-0.69;100.00;100369.69;4944835;29;20047;-78
2023/12/05 03:21:58;;;;;;;21.35;12.35;;;;;;;-0.71;100.00;100368.75;4949418;28;20062;-77
2023/12/05 03:24:26;;;;;;;18.50;11.82;;;;;;;-0.73;100.00;100357.44;4921821;28;20051;-79
2023/12/05 03:26:54;;;;;;;20.83;12.48;;;;;;;-0.72;100.00;100348.84;4945594;29;20055;-78
2023/12/05 03:29:21;;;;;;;21.33;12.85;;;;;;;-0.70;100.00;100347.22;4945031;29;20050;-78
2023/12/05 03:31:49;;;;;;;20.90;12.95;;;;;;;-0.71;100.00;100354.94;4930950;29;20056;-78
2023/12/05 03:34:17;;;;;;;21.77;12.10;;;;;;;-0.71;100.00;100354.94;4959696;29;20178;-78
2023/12/05 03:36:44;;;;;;;22.90;11.93;;;;;;;-0.72;100.00;100350.56;4947429;28;20062;-78
2023/12/05 03:39:11;;;;;;;22.35;12.68;;;;;;;-0.72;100.00;100347.97;4944776;29;20055;-78
2023/12/05 03:41:39;;;;;;;19.70;12.02;;;;;;;-0.72;100.00;100348.84;4920854;29;20047;-78
2023/12/05 03:44:06;;;;;;;18.05;11.15;;;;;;;-0.71;100.00;100349.75;4959751;28;20051;-78
2023/12/05 03:46:33;;;;;;;19.08;11.70;;;;;;;-0.72;100.00;100358.31;4957567;28;20051;-78
2023/12/05 03:49:01;;;;;;;20.65;12.88;;;;;;;-0.73;100.00;100367.78;4959515;29;20043;-79
2023/12/05 03:51:30;;;;;;;22.17;12.02;;;;;;;-0.74;100.00;100363.44;4917814;29;20058;-78
2023/12/05 03:53:57;;;;;;;18.83;11.20;;;;;;;-0.75;100.00;100353.03;4959252;29;20047;-77
2023/12/05 03:56:24;;;;;;;18.65;11.32;;;;;;;-0.78;100.00;100358.94;4956788;28;20083;-77
2023/12/05 03:58:52;;;;;;;21.73;12.57;;;;;;;-0.77;100.00;100365.03;4960266;28;20054;-77
2023/12/05 04:01:19;;;;;;;19.25;11.93;;;;;;;-0.77;100.00;100357.28;4939363;29;20453;-77
2023/12/05 04:03:47;;;;;;;18.38;11.23;;;;;;;-0.79;100.00;100354.63;4951818;28;20055;-78
2023/12/05 04:06:21;;;;;;;18.35;11.57;;;;;;;-0.79;100.00;100357.19;4935379;28;20435;-78
2023/12/05 04:08:50;;;;;;;21.73;12.63;;;;;;;-0.80;100.00;100358.88;4958752;29;20054;-78
2023/12/05 04:11:27;;;;;;;18.85;11.20;;;;;;;-0.83;100.00;100366.53;4951837;28;20058;-77
2023/12/05 04:13:54;;;;;;;20.73;11.52;;;;;;;-0.84;100.00;100359.59;4958356;28;20055;-77
2023/12/05 04:16:22;;;;;;;18.77;11.30;;;;;;;-0.84;100.00;100363.88;4928859;29;20401;-77
2023/12/05 04:18:49;;;;;;;18.52;11.60;;;;;;;-0.84;100.00;100371.66;4953840;28;20054;-78
2023/12/05 04:21:18;;;;;;;18.63;11.98;;;;;;;-0.85;100.00;100365.59;4975999;28;20047;-78
2023/12/05 04:23:46;;;;;;;19.80;11.40;;;;;;;-0.86;100.00;100368.13;4919004;29;20058;-77
2023/12/05 04:26:19;;;;;;;20.17;12.70;;;;;;;-0.87;100.00;100362.06;4966839;28;20047;-78
2023/12/05 04:28:46;;;;;;;21.17;12.00;;;;;;;-0.89;100.00;100363.72;4955319;28;20047;-78
2023/12/05 04:31:14;;;;;;;19.27;12.07;;;;;;;-0.88;100.00;100373.22;4958299;29;20058;-77
2023/12/05 04:33:42;;;;;;;22.60;11.75;;;;;;;-0.87;100.00;100377.59;4944738;29;20043;-77
2023/12/05 04:36:11;;;;;;;21.50;11.88;;;;;;;-0.88;100.00;100367.16;4941427;29;20040;-77
2023/12/05 04:38:38;;;;;;;17.85;10.88;;;;;;;-0.89;100.00;100368.88;4914993;29;20058;-78
2023/12/05 04:41:06;;;;;;;18.08;11.23;;;;;;;-0.91;100.00;100367.91;4957778;29;20472;-77
2023/12/05 04:43:33;;;;;;;19.08;11.85;;;;;;;-0.92;100.00;100358.41;4953939;28;20062;-78
2023/12/05 04:46:00;;;;;;;18.13;11.52;;;;;;;-0.91;100.00;100365.31;4969850;28;20064;-78
2023/12/05 04:48:28;;;;;;;21.92;11.88;;;;;;;-0.91;100.00;100367.91;4946508;28;20404;-77
2023/12/05 04:50:55;;;;;;;23.23;11.80;;;;;;;-0.92;100.00;100373.91;4940450;29;20051;-78
2023/12/05 04:53:23;;;;;;;21.27;11.07;;;;;;;-0.93;100.00;100372.13;4928071;28;20071;-78
2023/12/05 04:55:50;;;;;;;19.35;11.00;;;;;;;-0.95;100.00;100381.53;4944081;28;20044;-79
2023/12/05 04:58:19;;;;;;;17.73;11.18;;;;;;;-0.95;100.00;100371.19;4944703;28;20034;-79
2023/12/05 05:00:46;;;;;;;22.17;10.98;;;;;;;-0.94;100.00;100375.56;4957576;29;20047;-78
2023/12/05 05:03:16;;;;;;;21.48;12.63;;;;;;;-0.94;100.00;100372.97;4911564;29;20058;-77
2023/12/05 05:05:43;;;;;;;21.20;12.68;;;;;;;-0.95;100.00;100372.91;4935416;29;20052;-77
2023/12/05 05:08:11;;;;;;;19.80;11.55;;;;;;;-0.96;100.00;100372.03;4937994;29;20062;-78
2023/12/05 05:10:38;;;;;;;21.52;12.38;;;;;;;-0.94;100.00;100369.50;4927280;28;20047;-78
2023/12/05 05:13:05;;;;;;;22.80;12.25;;;;;;;-0.95;100.00;100371.19;4943845;28;20047;-77
2023/12/05 05:15:33;;;;;;;19.60;12.20;;;;;;;-0.94;100.00;100367.78;4969455;28;20048;-78
2023/12/05 05:18:00;;;;;;;23.23;13.57;;;;;;;-0.94;100.00;100375.56;4939747;29;20054;-78
2023/12/05 05:20:27;;;;;;;20.08;11.73;;;;;;;-0.94;100.00;100372.97;4924989;28;20905;-79
2023/12/05 05:22:55;;;;;;;20.90;11.70;;;;;;;-0.92;100.00;100376.50;4949804;28;20051;-78
2023/12/05 05:25:23;;;;;;;18.88;11.82;;;;;;;-0.93;100.00;100374.72;4915523;28;20531;-77
2023/12/05 05:27:50;;;;;;;19.20;11.82;;;;;;;-0.94;100.00;100362.63;4940308;28;20047;-76
2023/12/05 05:30:18;;;;;;;18.75;11.88;;;;;;;-0.95;100.00;100371.19;4953374;28;20055;-77
2023/12/05 05:32:45;;;;;;;20.10;11.02;;;;;;;-0.95;100.00;100378.06;4958611;29;20043;-77
2023/12/05 05:35:13;;;;;;;19.80;11.93;;;;;;;-0.94;100.00;100374.69;4942846;29;20062;-77
2023/12/05 05:37:40;;;;;;;20.38;12.50;;;;;;;-0.94;100.00;100383.31;4946225;28;20047;-77
2023/12/05 05:40:08;;;;;;;18.85;11.23;;;;;;;-0.93;100.00;100382.47;4920198;28;20719;-78
2023/12/05 05:42:36;;;;;;;19.52;12.70;;;;;;;-0.92;100.00;100383.38;4953126;28;20051;-78
2023/12/05 05:45:05;;;;;;;21.33;12.15;;;;;;;-0.92;100.00;100388.56;4936651;29;20062;-78
2023/12/05 05:47:32;;;;;;;21.33;11.88;;;;;;;-0.92;100.00;100381.69;4950536;28;20062;-78
2023/12/05 05:50:00;;;;;;;19.88;12.27;;;;;;;-0.94;100.00;100385.91;4942312;29;20051;-78
2023/12/05 05:52:28;;;;;;;21.80;12.23;;;;;;;-0.93;100.00;100387.66;4964253;28;20059;-79
2023/12/05 05:54:55;;;;;;;22.30;12.38;;;;;;;-0.94;100.00;100383.31;4940163;29;20059;-79
2023/12/05 05:57:23;;;;;;;21.15;12.73;;;;;;;-0.92;100.00;100392.03;4907837;29;20260;-78
2023/12/05 05:59:50;;;;;;;25.40;14.13;;;;;;;-0.91;100.00;100387.72;4941257;28;20054;-77
2023/12/05 06:02:18;;;;;;;22.33;13.10;;;;;;;-0.90;100.00;100390.38;4938296;29;20394;-78
2023/12/05 06:04:45;;;;;;;23.90;13.25;;;;;;;-0.91;100.00;100391.19;4910963;28;20063;-77
2023/12/05 06:07:13;;;;;;;21.40;12.88;;;;;;;-0.91;100.00;100387.72;4929689;28;20055;-76
2023/12/05 06:09:42;;;;;;;22.08;13.07;;;;;;;-0.91;100.00;100392.91;4914962;29;20047;-77
2023/12/05 06:12:11;;;;;;;24.02;13.40;;;;;;;-0.93;100.00;100397.13;4885755;29;20052;-77
2023/12/05 06:14:39;;;;;;;23.63;13.40;;;;;;;-0.93;100.00;100394.53;4945073;28;20059;-78
2023/12/05 06:17:06;;;;;;;21.30;13.23;;;;;;;-0.93;100.00;100394.53;4949079;29;20059;-79
2023/12/05 06:19:34;;;;;;;22.65;13.52;;;;;;;-0.98;100.00;100391.78;4965748;28;20035;-78
2023/12/05 06:22:01;;;;;;;22.73;12.63;;;;;;;-0.99;100.00;100406.38;4931941;29;20066;-77
2023/12/05 06:24:29;;;;;;;19.67;12.68;;;;;;;-1.00;100.00;100390.81;4941126;28;20058;-78
2023/12/05 06:26:56;;;;;;;23.20;13.85;;;;;;;-0.97;100.00;100398.69;4968380;28;20058;-78
2023/12/05 06:29:24;;;;;;;21.73;12.88;;;;;;;-0.99;100.00;100395.16;4940654;29;20051;-77
2023/12/05 06:31:51;;;;;;;24.35;13.77;;;;;;;-0.99;100.00;100400.34;4952967;29;20043;-77
2023/12/05 06:34:19;;;;;;;28.17;13.65;;;;;;;-1.00;100.00;100394.28;4963998;28;20067;-78
2023/12/05 06:36:46;;;;;;;23.42;13.77;;;;;;;-1.00;100.00;100399.47;4971098;28;20031;-77
2023/12/05 06:39:14;;;;;;;24.10;13.05;;;;;;;-1.00;100.00;100396.00;4933201;29;20061;-78
2023/12/05 06:41:41;;;;;;;23.92;13.57;;;;;;;-1.01;100.00;100402.84;4949108;28;20043;-78
2023/12/05 06:44:08;;;;;;;25.60;13.98;;;;;;;-1.01;100.00;100404.56;4951011;28;20062;-77
2023/12/05 06:46:36;;;;;;;23.13;13.13;;;;;;;-1.04;100.00;100404.41;4952050;28;20478;-77
2023/12/05 06:49:03;;;;;;;22.02;13.93;;;;;;;-1.05;100.00;100410.44;4982316;28;20058;-77
2023/12/05 06:51:31;;;;;;;22.17;13.18;;;;;;;-1.06;100.00;100403.47;4970504;29;20053;-77
2023/12/05 06:53:58;;;;;;;24.67;13.88;;;;;;;-1.08;100.00;100399.94;4967630;28;20062;-77
2023/12/05 06:56:26;;;;;;;22.48;13.13;;;;;;;-1.09;100.00;100404.22;4942066;29;20053;-80
2023/12/05 06:58:53;;;;;;;22.50;12.98;;;;;;;-1.08;100.00;100407.69;4961143;28;20043;-77
2023/12/05 07:01:20;;;;;;;25.08;12.73;;;;;;;-1.11;100.00;100405.88;4937531;29;20055;-77
2023/12/05 07:03:48;;;;;;;20.25;12.70;;;;;;;-1.11;100.00;100415.34;4958925;28;20055;-77
2023/12/05 07:06:23;;;;;;;27.60;13.43;;;;;;;-1.12;100.00;100413.56;4963578;29;20056;-78
2023/12/05 07:08:51;;;;;;;25.92;12.90;;;;;;;-1.12;100.00;100419.59;4969296;28;22232;-78
2023/12/05 07:11:19;;;;;;;29.58;13.52;;;;;;;-1.12;100.00;100413.56;4971445;28;20043;-78
2023/12/05 07:13:48;;;;;;;20.70;12.60;;;;;;;-1.14;100.00;100412.63;4951002;28;20050;-78
2023/12/05 07:16:15;;;;;;;28.50;16.23;;;;;;;-1.14;100.00;100420.38;4965394;28;20047;-77
2023/12/05 07:18:42;;;;;;;21.85;14.05;;;;;;;-1.13;100.00;100416.97;4981421;28;20047;-77
2023/12/05 07:21:10;;;;;;;24.48;15.05;;;;;;;-1.12;100.00;100419.59;4962218;29;20054;-78
2023/12/05 07:23:38;;;;;;;27.13;16.20;;;;;;;-1.11;100.00;100425.69;4950627;29;20061;-77
2023/12/05 07:26:07;;;;;;;29.65;15.73;;;;;;;-1.13;100.00;100425.63;4956350;29;20066;-77
2023/12/05 07:28:35;;;;;;;28.30;15.82;;;;;;;-1.12;100.00;100422.19;4961940;28;20050;-77
2023/12/05 07:31:02;;;;;;;27.80;15.25;;;;;;;-1.13;100.00;100430.78;4932757;28;20043;-78
2023/12/05 07:33:30;;;;;;;22.30;14.32;;;;;;;-1.15;100.00;100432.41;4951857;29;20051;-77
2023/12/05 07:35:58;;;;;;;23.63;14.50;;;;;;;-1.15;100.00;100436.69;4967113;28;20054;-78
2023/12/05 07:38:25;;;;;;;24.98;15.13;;;;;;;-1.14;100.00;100430.72;4956152;29;20059;-78
2023/12/05 07:40:53;;;;;;;28.00;14.10;;;;;;;-1.13;100.00;100440.25;4955605;29;20043;-77
2023/12/05 07:43:21;;;;;;;24.20;14.15;;;;;;;-1.12;100.00;100437.72;4958523;29;20027;-78
2023/12/05 07:45:49;;;;;;;20.90;12.82;;;;;;;-1.12;100.00;100447.19;4940280;28;20058;-78
2023/12/05 07:48:16;;;;;;;25.70;13.55;;;;;;;-1.13;100.00;100442.84;4968743;29;20055;-77
2023/12/05 07:50:44;;;;;;;24.40;14.07;;;;;;;-1.13;100.00;100445.44;4964170;28;21525;-77
2023/12/05 07:53:11;;;;;;;25.35;13.15;;;;;;;-1.12;100.00;100447.19;4971124;29;20059;-76
2023/12/05 07:55:39;;;;;;;27.02;14.52;;;;;;;-1.11;100.00;100441.19;4963146;29;20047;-78
2023/12/05 07:58:06;;;;;;;23.55;13.60;;;;;;;-1.11;100.00;100456.72;4970926;29;20047;-77
2023/12/05 08:00:34;;;;;;;26.33;14.75;;;;;;;-1.10;100.00;100442.94;4939632;28;20067;-77
2023/12/05 08:03:02;;;;;;;22.95;13.38;;;;;;;-1.10;100.00;100454.16;4968320;28;20055;-77
2023/12/05 08:05:29;;;;;;;23.48;13.88;;;;;;;-1.10;100.00;100453.28;4965704;28;20059;-77
2023/12/05 08:07:57;;;;;;;26.08;14.30;;;;;;;-1.11;100.00;100467.06;4938178;29;20353;-78
2023/12/05 08:10:24;;;;;;;23.80;13.98;;;;;;;-1.11;100.00;100459.31;4970914;29;20058;-77
2023/12/05 08:12:52;;;;;;;28.58;14.32;;;;;;;-1.12;100.00;100454.94;4970720;29;20073;-77
2023/12/05 08:15:19;;;;;;;23.30;14.07;;;;;;;-1.12;100.00;100454.94;4945370;28;20044;-77
2023/12/05 08:17:48;;;;;;;23.90;14.40;;;;;;;-1.11;100.00;100467.94;4960201;28;20051;-78
2023/12/05 08:20:16;;;;;;;23.77;12.98;;;;;;;-1.11;100.00;100454.13;4958556;29;20059;-78
2023/12/05 08:22:43;;;;;;;22.67;13.25;;;;;;;-1.10;100.00;100459.34;4968475;28;20057;-78
2023/12/05 08:25:11;;;;;;;24.48;13.45;;;;;;;-1.11;100.00;100459.31;4976543;28;20043;-78
2023/12/05 08:27:39;;;;;;;25.75;13.90;;;;;;;-1.11;100.00;100462.75;4952262;28;20043;-78
2023/12/05 08:30:07;;;;;;;22.35;13.38;;;;;;;-1.12;100.00;100475.63;4934536;28;20055;-77
2023/12/05 08:32:34;;;;;;;23.60;13.55;;;;;;;-1.12;100.00;100468.75;4947794;28;20054;-78
2023/12/05 08:35:02;;;;;;;22.83;13.27;;;;;;;-1.10;100.00;100463.63;4942483;28;20051;-77
2023/12/05 08:37:31;;;;;;;22.15;13.45;;;;;;;-1.10;100.00;100468.81;4944773;29;20058;-78
2023/12/05 08:39:59;;;;;;;25.63;14.75;;;;;;;-1.10;100.00;100479.16;4932239;29;20054;-78
2023/12/05 08:42:29;;;;;;;23.52;13.35;;;;;;;-1.11;100.00;100467.94;4965292;29;20066;-77
2023/12/05 08:44:57;;;;;;;;;;;;;;;-1.11;100.00;100477.41;4939029;28;20059;-77
2023/12/05 08:47:24;;;;;;;21.55;13.07;;;;;;;-1.10;100.00;100479.16;4964101;28;19926;-77
2023/12/05 08:49:52;;;;;;;19.65;12.35;;;;;;;-1.09;100.00;100478.34;4963760;28;20047;-78
2023/12/05 08:52:20;;;;;;;20.90;12.63;;;;;;;-1.08;100.00;100480.97;4934746;29;20047;-77
2023/12/05 08:54:47;;;;;;;20.92;12.23;;;;;;;-1.06;100.00;100486.22;4927158;29;20050;-77
2023/12/05 08:57:14;;;;;;;23.92;13.40;;;;;;;-1.05;100.00;100488.00;4963164;29;20062;-77
2023/12/05 08:59:42;;;;;;;20.17;12.90;;;;;;;-1.07;100.00;100489.66;4961129;29;20069;-77
2023/12/05 09:02:10;;;;;;;20.10;12.95;;;;;;;-1.07;100.00;100487.06;4945020;29;20055;-77
2023/12/05 09:04:37;;;;;;;22.83;12.32;;;;;;;-1.06;100.00;100491.41;4914834;29;20066;-77
2023/12/05 09:07:06;;;;;;;22.52;12.60;;;;;;;-1.06;100.00;100492.31;4930770;29;20448;-77
2023/12/05 09:09:35;;;;;;;22.58;12.55;;;;;;;-1.04;100.00;100497.53;4929983;29;20619;-77
2023/12/05 09:12:04;;;;;;;20.45;11.75;;;;;;;-1.04;100.00;100502.69;4951614;29;20051;-77
2023/12/05 09:14:31;;;;;;;20.85;12.32;;;;;;;-1.03;100.00;100502.78;4950104;29;20071;-78
2023/12/05 09:16:59;;;;;;;20.05;12.55;;;;;;;-1.01;100.00;100503.72;4958756;28;20062;-77
2023/12/05 09:19:26;;;;;;;20.88;12.27;;;;;;;-0.99;100.00;100498.63;4906562;29;20062;-77
2023/12/05 09:21:54;;;;;;;20.15;12.93;;;;;;;-0.96;100.00;100505.63;4933331;29;20047;-77
2023/12/05 09:24:21;;;;;;;19.52;12.35;;;;;;;-0.93;100.00;100498.88;4940840;29;20090;-77
2023/12/05 09:26:49;;;;;;;23.85;12.98;;;;;;;-0.90;100.00;100511.09;4970027;28;20058;-77
2023/12/05 09:29:16;;;;;;;21.90;13.00;;;;;;;-0.87;100.00;100512.09;4965244;29;20047;-78
2023/12/05 09:31:43;;;;;;;21.77;13.18;;;;;;;-0.84;100.00;100512.22;4942969;28;20684;-77
2023/12/05 09:34:11;;;;;;;20.08;11.85;;;;;;;-0.81;100.00;100503.72;4930325;29;20051;-77
2023/12/05 09:36:39;;;;;;;24.02;13.45;;;;;;;-0.77;100.00;100515.97;4954755;28;20078;-78
2023/12/05 09:39:06;;;;;;;23.73;12.18;;;;;;;-0.72;100.00;100516.16;4948308;29;20039;-77
2023/12/05 09:41:42;;;;;;;22.90;12.80;;;;;;;-0.71;100.00;100520.53;4957000;28;20059;-81
2023/12/05 09:44:10;;;;;;;20.80;13.05;;;;;;;-0.68;100.00;100521.56;4973346;28;20067;-78
2023/12/05 09:46:46;;;;;;;21.92;12.95;;;;;;;-0.69;100.00;100519.75;4960816;29;20062;-78
2023/12/05 09:49:17;;;;;;;21.73;12.70;;;;;;;-0.67;100.00;100525.00;4928586;28;20055;-78
2023/12/05 09:51:46;;;;;;;22.88;13.07;;;;;;;-0.65;100.00;100521.66;4938975;28;20055;-77
2023/12/05 09:54:14;;;;;;;25.95;14.82;;;;;;;-0.60;100.00;100527.06;4932011;29;20043;-77
2023/12/05 09:56:42;;;;;;;19.65;12.88;;;;;;;-0.58;100.00;100512.47;4939201;29;20054;-77
2023/12/05 09:59:10;;;;;;;23.50;13.38;;;;;;;-0.55;100.00;100515.16;4929974;29;20541;-78
2023/12/05 10:01:41;;;;;;;22.15;13.40;;;;;;;-0.54;100.00;100522.13;4928729;29;20062;-78
2023/12/05 10:04:16;;;;;;;21.95;12.65;;;;;;;-0.52;100.00;100515.31;4939779;28;20484;-77
2023/12/05 10:06:47;;;;;;;25.33;13.52;;;;;;;-0.46;100.00;100517.28;4961213;29;20047;-77
2023/12/05 10:09:15;;;;;;;;;;;;;;;-0.45;100.00;100516.47;4939362;29;20055;-77
2023/12/05 10:11:44;;;;;;;24.23;12.88;;;;;;;-0.46;100.00;100510.38;4938725;28;19934;-77
2023/12/05 10:14:11;;;;;;;22.10;12.75;;;;;;;-0.41;100.00;100515.78;4925907;29;20449;-77
2023/12/05 10:16:39;;;;;;;22.50;12.38;;;;;;;-0.36;100.00;100528.91;4958930;29;20043;-77
2023/12/05 10:19:09;;;;;;;24.58;12.88;;;;;;;-0.36;100.00;100521.13;4947022;29;20058;-77
2023/12/05 10:21:37;;;;;;;21.13;12.45;;;;;;;-0.34;100.00;100524.66;4932105;28;20366;-78
2023/12/05 10:24:04;;;;;;;23.80;14.05;;;;;;;-0.32;100.00;100520.44;4938061;29;20067;-77
2023/12/05 10:26:32;;;;;;;21.65;12.75;;;;;;;-0.33;100.00;100516.09;4941396;28;20055;-77
2023/12/05 10:28:59;;;;;;;20.50;12.38;;;;;;;-0.37;100.00;100516.78;4954273;28;20048;-78
2023/12/05 10:31:27;;;;;;;20.77;12.88;;;;;;;-0.43;100.00;100523.47;4937303;29;20044;-77
2023/12/05 10:34:04;;;;;;;23.58;13.63;;;;;;;-0.45;100.00;100517.34;4944781;28;20070;-77
2023/12/05 10:36:32;;;;;;;23.17;13.85;;;;;;;-0.42;100.00;100511.41;4909793;29;20473;-77
2023/12/05 10:39:00;;;;;;;22.63;13.57;;;;;;;-0.42;100.00;100514.91;4936001;29;20075;-77
2023/12/05 10:41:29;;;;;;;22.38;14.10;;;;;;;-0.45;100.00;100513.88;4958498;28;20046;-77
2023/12/05 10:43:57;;;;;;;25.25;13.68;;;;;;;-0.49;100.00;100514.56;4952857;28;20067;-77
2023/12/05 10:46:26;;;;;;;24.58;13.43;;;;;;;-0.51;100.00;100511.00;4956203;29;20433;-77
2023/12/05 10:48:56;;;;;;;21.58;12.15;;;;;;;-0.49;100.00;100520.63;4943029;29;20054;-77
2023/12/05 10:51:25;;;;;;;22.05;13.13;;;;;;;-0.49;100.00;100512.88;4924832;28;20048;-77
2023/12/05 10:53:55;;;;;;;24.50;14.65;;;;;;;-0.46;100.00;100523.34;4926770;29;20047;-77
2023/12/05 10:56:23;;;;;;;22.13;13.15;;;;;;;-0.45;100.00;100524.25;4962248;28;20389;-77
2023/12/05 10:58:52;;;;;;;23.33;13.98;;;;;;;-0.53;100.00;100510.97;4966434;28;20047;-77
2023/12/05 11:01:21;;;;;;;22.83;13.88;;;;;;;-0.54;100.00;100514.38;4929845;28;20052;-77
2023/12/05 11:03:50;;;;;;;22.10;14.10;;;;;;;-0.54;100.00;100521.25;4957902;28;20520;-77
2023/12/05 11:06:17;;;;;;;29.95;14.10;;;;;;;-0.60;100.00;100520.16;4934466;28;20047;-77